Portada
METAR-TAF:

METAR-TAF

Aeropuertos :

Tiaret, Argelia

latitud: 35-15N, longitud: 001-26E, altitud: 1127 m

Observación

El informe se hizo hace 38 minutos, a las 02:00 UTC
Viento 8 kt del sur
Temperatura 3°C
Humedad 93%
Presión 1021 hPa
Visibilidad 10 km o más
sin nubes por debajo de 1500 m y sin presencia de cumulonimbus.

METAR: DAOB 240200Z 17008KT CAVOK 03/02 Q1021

Hora: 03:38 (02:38 UTC)

Pronóstico

El informe se hizo hace 3 horas y 38 minutos, a las 23:00 UTC
Pronóstico válido del 24 a las 00 UTC al 24 a las 24 UTC
Viento 6 kt del sur
Visibilidad 10 km o más
Escasas nubes a una altura de 2300 ft
Probabilidad 30% :
Temporalmente
del 24 a las 04 UTC al 24 a las 08 UTC
Visibilidad: 4000 m
neblina
Evolucionando progresivamente
del 24 a las 12 UTC al 24 a las 15 UTC
Viento 10 kt del oeste-suroeste

TAF: DAOB 232300Z 2400/2424 17006KT 9999 FEW023 PROB30 TEMPO 2404/2408 4000 BR BECMG 2412/2415 24010KT

Observaciones y pronósticos meteorológicos de más de 4000 aeropuertos (mensajes METAR y TAF).

Los puntos amarillos y rojos representan las estaciones disponibles.

Ponga el ratón en el punto deseado para ver el nombre de la estación.

Haga clic para ver las observaciones y los pronósticos meteorológicos.

Para cambiar el mapa : haga clic en los botones verdes con una cruz de color negro para hacer un zoom, en el botón verde con un guión para alejar o en las flechas verdes para mapas adyacentes.


METAR-TAF: